createdAt,value
2022-08-11T00:01:26.477Z,99874.97
2022-08-11T00:03:43.779Z,99879.84
2022-08-11T00:05:56.808Z,99873.88
2022-08-11T00:07:59.439Z,99874.91
2022-08-11T00:10:02.379Z,99880.38
2022-08-11T00:12:12.399Z,99881.53
2022-08-11T00:14:18.645Z,99869.81
2022-08-11T00:16:24.030Z,99875.84
2022-08-11T00:18:26.376Z,99866.72
2022-08-11T00:20:33.742Z,99867.53
2022-08-11T00:22:38.887Z,99873.50
2022-08-11T00:24:53.740Z,99874.00
2022-08-11T00:26:58.245Z,99870.78
2022-08-11T00:29:10.194Z,99879.06
2022-08-11T00:31:21.341Z,99867.34
2022-08-11T00:33:44.176Z,99870.34
2022-08-11T00:35:53.753Z,99866.50
2022-08-11T00:38:00.142Z,99855.66
2022-08-11T00:40:10.188Z,99862.75
2022-08-11T00:42:27.661Z,99866.63
2022-08-11T00:44:38.578Z,99862.16
2022-08-11T00:46:46.675Z,99863.44
2022-08-11T00:49:16.214Z,99857.97
2022-08-11T00:51:28.817Z,99855.44
2022-08-11T00:54:20.426Z,99854.75
2022-08-11T00:56:37.689Z,99858.19
2022-08-11T00:58:51.707Z,99860.69
2022-08-11T01:01:09.830Z,99855.06
2022-08-11T01:03:18.219Z,99845.25
2022-08-11T01:05:46.156Z,99850.88
2022-08-11T01:08:02.155Z,99849.47
2022-08-11T01:10:22.296Z,99843.75
2022-08-11T01:12:36.401Z,99845.63
2022-08-11T01:15:15.507Z,99846.84
2022-08-11T01:17:29.590Z,99844.97
2022-08-11T01:20:47.969Z,99842.25
2022-08-11T01:22:33.358Z,99845.47
2022-08-11T01:25:05.427Z,99850.25
2022-08-11T01:27:22.853Z,99848.50
2022-08-11T01:30:12.771Z,99849.25
2022-08-11T01:32:40.599Z,99848.94
2022-08-11T01:35:03.770Z,99856.88
2022-08-11T01:37:25.116Z,99861.50
2022-08-11T01:39:52.049Z,99855.66
2022-08-11T01:42:50.149Z,99860.63
2022-08-11T01:45:30.311Z,99857.50
2022-08-11T01:48:05.438Z,99861.13
2022-08-11T01:50:21.586Z,99864.47
2022-08-11T01:52:34.748Z,99860.75
2022-08-11T01:55:04.666Z,99859.13
2022-08-11T01:57:29.506Z,99857.38
2022-08-11T01:59:54.762Z,99864.47
2022-08-11T02:02:21.327Z,99861.00
2022-08-11T02:04:35.653Z,99864.34
2022-08-11T02:07:02.570Z,99863.88
2022-08-11T02:09:49.559Z,99863.00
2022-08-11T02:11:59.071Z,99852.56
2022-08-11T02:14:16.480Z,99868.09
2022-08-11T02:16:37.249Z,99857.41
2022-08-11T02:19:01.035Z,99859.16
2022-08-11T02:21:36.049Z,99854.78
2022-08-11T02:24:08.105Z,99854.41
2022-08-11T02:26:14.939Z,99851.31
2022-08-11T02:28:16.627Z,99853.41
2022-08-11T02:30:25.554Z,99848.94
2022-08-11T02:32:58.103Z,99852.91
2022-08-11T02:35:16.661Z,99850.28
2022-08-11T02:37:27.618Z,99852.16
2022-08-11T02:39:43.076Z,99851.31
2022-08-11T02:42:35.312Z,99851.53
2022-08-11T02:44:55.691Z,99857.13
2022-08-11T02:47:22.117Z,99850.66
2022-08-11T02:49:47.271Z,99863.22
2022-08-11T02:52:25.155Z,99857.81
2022-08-11T02:54:34.779Z,99859.44
2022-08-11T02:56:52.171Z,99853.69
2022-08-11T02:59:15.429Z,99854.91
2022-08-11T03:01:28.629Z,99856.59
2022-08-11T03:03:38.306Z,99854.22
2022-08-11T03:05:52.721Z,99858.56
2022-08-11T03:08:14.708Z,99845.66
2022-08-11T03:10:32.778Z,99852.44
2022-08-11T03:12:59.128Z,99849.00
2022-08-11T03:15:22.564Z,99851.84
2022-08-11T03:17:30.181Z,99853.09
2022-08-11T03:19:56.662Z,99851.72
2022-08-11T03:22:33.542Z,99855.78
2022-08-11T03:24:59.724Z,99852.44
2022-08-11T03:27:11.154Z,99848.47
2022-08-11T03:29:37.641Z,99852.44
2022-08-11T03:32:02.088Z,99855.31
2022-08-11T03:34:17.914Z,99855.63
2022-08-11T03:37:15.052Z,99853.06
2022-08-11T03:39:21.187Z,99855.81
2022-08-11T03:42:01.996Z,99854.59
2022-08-11T03:44:43.534Z,99855.72
2022-08-11T03:47:03.632Z,99855.72
2022-08-11T03:49:17.661Z,99853.00
2022-08-11T03:51:51.539Z,99854.22
2022-08-11T03:54:01.885Z,99857.84
2022-08-11T03:56:47.948Z,99854.09
2022-08-11T03:59:21.968Z,99855.22
2022-08-11T04:01:54.587Z,99850.97
2022-08-11T04:04:45.208Z,99864.75
2022-08-11T04:06:53.208Z,99857.44
2022-08-11T04:09:10.202Z,99851.34
2022-08-11T04:11:26.917Z,99848.47
2022-08-11T04:14:30.281Z,99853.31
2022-08-11T04:16:44.468Z,99853.06
2022-08-11T04:19:30.034Z,99859.66
2022-08-11T04:21:59.426Z,99855.56
2022-08-11T04:24:50.625Z,99853.31
2022-08-11T04:27:25.012Z,99849.94
2022-08-11T04:30:05.608Z,99856.06
2022-08-11T04:32:45.720Z,99855.97
2022-08-11T04:35:00.106Z,99856.59
2022-08-11T04:37:28.795Z,99863.81
2022-08-11T04:40:01.387Z,99866.16
2022-08-11T04:42:40.569Z,99867.88
2022-08-11T04:45:07.606Z,99865.56
2022-08-11T04:48:04.300Z,99863.13
2022-08-11T04:51:08.671Z,99860.84
2022-08-11T04:53:38.277Z,99862.41
2022-08-11T04:56:34.916Z,99863.03
2022-08-11T04:59:14.495Z,99870.75
2022-08-11T05:01:43.166Z,99859.84
2022-08-11T05:04:03.586Z,99859.59
2022-08-11T05:06:15.712Z,99850.41
2022-08-11T05:08:24.324Z,99849.44
2022-08-11T05:11:05.509Z,99853.16
2022-08-11T05:13:27.864Z,99866.75
2022-08-11T05:16:05.669Z,99857.16
2022-08-11T05:18:38.499Z,99845.44
2022-08-11T05:21:21.610Z,99845.81
2022-08-11T05:23:45.635Z,99844.44
2022-08-11T05:26:45.430Z,99844.66
2022-08-11T05:28:56.655Z,99850.94
2022-08-11T05:31:26.391Z,99850.19
2022-08-11T05:33:55.004Z,99846.16
2022-08-11T05:36:27.486Z,99849.88
2022-08-11T05:38:52.251Z,99851.28
2022-08-11T05:41:14.591Z,99854.31
2022-08-11T05:43:36.283Z,99851.75
2022-08-11T05:46:03.847Z,99852.81
2022-08-11T05:48:26.105Z,99848.91
2022-08-11T05:50:47.130Z,99847.09
2022-08-11T05:53:09.275Z,99849.72
2022-08-11T05:55:34.225Z,99848.06
2022-08-11T05:57:50.797Z,99846.63
2022-08-11T06:00:11.013Z,99841.03
2022-08-11T06:02:13.906Z,99834.28
2022-08-11T06:04:21.578Z,99837.81
2022-08-11T06:06:25.643Z,99844.47
2022-08-11T06:08:33.255Z,99839.13
2022-08-11T06:10:41.425Z,99833.19
2022-08-11T06:12:43.720Z,99841.47
2022-08-11T06:14:46.764Z,99839.47
2022-08-11T06:16:51.062Z,99839.19
2022-08-11T06:18:53.718Z,99838.47
2022-08-11T06:20:58.241Z,99834.41
2022-08-11T06:23:05.417Z,99839.09
2022-08-11T06:25:10.176Z,99835.03
2022-08-11T06:27:20.241Z,99831.25
2022-08-11T06:29:37.760Z,99831.34
2022-08-11T06:31:56.913Z,99838.97
2022-08-11T06:34:31.565Z,99832.75
2022-08-11T06:36:50.269Z,99830.06
2022-08-11T06:39:07.030Z,99832.38
2022-08-11T06:41:30.503Z,99834.50
2022-08-11T06:43:55.475Z,99828.09
2022-08-11T06:46:08.397Z,99833.06
2022-08-11T06:48:17.625Z,99829.69
2022-08-11T06:50:39.833Z,99833.50
2022-08-11T06:52:42.694Z,99833.88
2022-08-11T06:54:57.234Z,99834.69
2022-08-11T06:57:34.209Z,99835.47
2022-08-11T06:59:56.544Z,99834.66
2022-08-11T07:01:59.143Z,99837.31
2022-08-11T07:04:09.241Z,99837.38
2022-08-11T07:06:50.451Z,99841.78
2022-08-11T07:09:42.974Z,99840.50
2022-08-11T07:12:30.197Z,99837.41
2022-08-11T07:14:51.122Z,99833.84
2022-08-11T07:16:54.232Z,99833.06
2022-08-11T07:19:21.331Z,99829.25
2022-08-11T07:22:00.791Z,99825.53
2022-08-11T07:25:01.279Z,99825.31
2022-08-11T07:27:19.372Z,99823.47
2022-08-11T07:29:22.545Z,99822.84
2022-08-11T07:31:50.634Z,99821.44
2022-08-11T07:34:18.531Z,99821.06
2022-08-11T07:36:26.272Z,99813.84
2022-08-11T07:38:47.310Z,99814.38
2022-08-11T07:40:50.895Z,99815.13
2022-08-11T07:42:54.050Z,99804.88
2022-08-11T07:45:16.745Z,99813.59
2022-08-11T07:47:37.322Z,99808.63
2022-08-11T07:49:59.348Z,99816.22
2022-08-11T07:52:21.381Z,99804.88
2022-08-11T07:54:23.948Z,99806.22
2022-08-11T07:56:48.751Z,99804.31
2022-08-11T07:59:13.849Z,99805.91
2022-08-11T08:01:41.882Z,99806.09
2022-08-11T08:04:03.567Z,99802.13
2022-08-11T08:06:36.141Z,99795.72
2022-08-11T08:09:00.783Z,99799.22
2022-08-11T08:11:27.492Z,99802.50
2022-08-11T08:13:50.944Z,99797.66
2022-08-11T08:16:12.593Z,99797.16
2022-08-11T08:18:25.665Z,99791.97
2022-08-11T08:20:34.403Z,99792.47
2022-08-11T08:22:39.667Z,99794.06
2022-08-11T08:24:42.967Z,99793.34
2022-08-11T08:27:00.523Z,99773.28
2022-08-11T08:29:23.800Z,99786.06
2022-08-11T08:31:25.976Z,99784.31
2022-08-11T08:33:32.410Z,99776.72
2022-08-11T08:35:37.765Z,99771.13
2022-08-11T08:37:59.858Z,99773.03
2022-08-11T08:40:02.375Z,99771.47
2022-08-11T08:42:12.646Z,99775.31
2022-08-11T08:46:54.794Z,99775.47
2022-08-11T08:49:01.800Z,99781.34
2022-08-11T08:52:01.515Z,99782.03
2022-08-11T08:54:01.682Z,99779.94
2022-08-11T08:56:04.503Z,99782.06
2022-08-11T08:58:07.933Z,99781.66
2022-08-11T09:00:12.929Z,99776.78
2022-08-11T09:02:33.907Z,99773.84
2022-08-11T09:04:37.845Z,99773.50
2022-08-11T09:06:40.542Z,99770.44
2022-08-11T09:08:43.769Z,99766.13
2022-08-11T09:11:13.618Z,99764.53
2022-08-11T09:13:16.261Z,99767.16
2022-08-11T09:15:19.800Z,99768.16
2022-08-11T09:17:23.633Z,99761.22
2022-08-11T09:19:26.738Z,99748.69
2022-08-11T09:21:39.321Z,99753.84
2022-08-11T09:24:21.943Z,99759.13
2022-08-11T09:26:47.975Z,99750.28
2022-08-11T09:28:52.355Z,99746.22
2022-08-11T09:30:55.149Z,99746.91
2022-08-11T09:33:00.560Z,99741.81
2022-08-11T09:35:04.763Z,99745.94
2022-08-11T09:37:53.653Z,99739.41
2022-08-11T09:40:08.795Z,99743.50
2022-08-11T09:42:11.165Z,99737.22
2022-08-11T09:44:37.884Z,99731.31
2022-08-11T09:46:41.637Z,99730.75
2022-08-11T09:48:46.586Z,99730.91
2022-08-11T09:50:51.109Z,99712.44
2022-08-11T09:53:35.293Z,99728.28
2022-08-11T09:55:16.274Z,99728.75
2022-08-11T09:57:38.649Z,99730.38
2022-08-11T09:59:41.446Z,99727.78
2022-08-11T10:01:47.384Z,99730.53
2022-08-11T10:03:49.544Z,99728.03
2022-08-11T10:06:15.459Z,99726.38
2022-08-11T10:08:19.771Z,99723.22
2022-08-11T10:10:24.006Z,99720.06
2022-08-11T10:12:37.306Z,99714.72
2022-08-11T10:15:03.745Z,99725.19
2022-08-11T10:17:08.454Z,99724.28
2022-08-11T10:19:11.441Z,99729.44
2022-08-11T10:21:36.276Z,99719.75
2022-08-11T10:24:01.122Z,99723.75
2022-08-11T10:26:27.479Z,99720.03
2022-08-11T10:28:55.623Z,99721.75
2022-08-11T10:31:18.024Z,99715.13
2022-08-11T10:33:41.741Z,99716.19
2022-08-11T10:35:49.571Z,99714.28
2022-08-11T10:38:08.491Z,99708.94
2022-08-11T10:40:16.194Z,99705.63
2022-08-11T10:42:57.104Z,99703.69
2022-08-11T10:45:01.740Z,99712.00
2022-08-11T10:47:24.027Z,99707.66
2022-08-11T10:49:27.300Z,99710.94
2022-08-11T10:51:50.728Z,99705.09
2022-08-11T10:54:12.968Z,99706.13
2022-08-11T10:56:34.174Z,99696.81
2022-08-11T10:58:51.034Z,99698.59
2022-08-11T11:00:57.025Z,99693.81
2022-08-11T11:03:05.400Z,99692.75
2022-08-11T11:05:30.718Z,99685.06
2022-08-11T11:07:58.300Z,99688.91
2022-08-11T11:10:06.087Z,99685.38
2022-08-11T11:12:34.315Z,99692.94
2022-08-11T11:14:59.181Z,99687.59
2022-08-11T11:17:23.767Z,99690.53
2022-08-11T11:19:28.610Z,99685.97
2022-08-11T11:21:31.420Z,99692.22
2022-08-11T11:23:56.140Z,99679.75
2022-08-11T11:26:06.950Z,99688.78
2022-08-11T11:28:17.937Z,99675.50
2022-08-11T11:30:19.939Z,99672.91
2022-08-11T11:32:31.033Z,99672.53
2022-08-11T11:34:53.401Z,99661.09
2022-08-11T11:36:57.692Z,99660.03
2022-08-11T11:39:00.239Z,99655.94
2022-08-11T11:41:21.078Z,99661.50
2022-08-11T11:43:23.124Z,99656.84
2022-08-11T11:45:25.705Z,99656.00
2022-08-11T11:47:27.882Z,99654.19
2022-08-11T11:49:32.629Z,99653.16
2022-08-11T11:51:34.622Z,99656.97
2022-08-11T11:53:36.769Z,99655.25
2022-08-11T11:55:39.279Z,99646.81
2022-08-11T11:58:02.703Z,99644.50
2022-08-11T12:00:33.737Z,99647.28
2022-08-11T12:02:37.086Z,99645.16
2022-08-11T12:04:43.476Z,99651.56
2022-08-11T12:06:45.395Z,99650.50
2022-08-11T12:08:50.729Z,99639.06
2022-08-11T12:11:18.016Z,99638.38
2022-08-11T12:13:38.402Z,99633.22
2022-08-11T12:16:31.515Z,99633.28
2022-08-11T12:18:02.815Z,99637.00
2022-08-11T12:20:05.454Z,99638.81
2022-08-11T12:22:46.032Z,99628.63
2022-08-11T12:25:06.835Z,99619.13
2022-08-11T12:27:21.853Z,99621.91
2022-08-11T12:29:28.262Z,99624.72
2022-08-11T12:31:30.831Z,99619.84
2022-08-11T12:33:35.139Z,99611.03
2022-08-11T12:35:40.574Z,99611.34
2022-08-11T12:38:09.917Z,99615.13
2022-08-11T12:40:43.634Z,99612.41
2022-08-11T12:43:24.432Z,99608.44
2022-08-11T12:45:42.952Z,99611.97
2022-08-11T12:48:59.026Z,99615.81
2022-08-11T12:50:56.959Z,99612.91
2022-08-11T12:52:59.487Z,99615.13
2022-08-11T12:55:14.136Z,99606.47
2022-08-11T12:57:38.024Z,99607.66
2022-08-11T12:59:59.923Z,99616.88
2022-08-11T13:02:22.003Z,99608.41
2022-08-11T13:04:46.097Z,99607.34
2022-08-11T13:06:52.680Z,99601.47
2022-08-11T13:09:00.973Z,99606.38
2022-08-11T13:11:22.909Z,99604.72
2022-08-11T13:13:55.408Z,99596.78
2022-08-11T13:15:52.522Z,99596.56
2022-08-11T13:17:55.914Z,99598.91
2022-08-11T13:20:00.011Z,99588.53
2022-08-11T13:22:06.239Z,99596.44
2022-08-11T13:24:08.357Z,99586.94
2022-08-11T13:26:11.305Z,99584.78
2022-08-11T13:28:13.403Z,99583.00
2022-08-11T13:30:39.103Z,99581.28
2022-08-11T13:32:45.287Z,99579.09
2022-08-11T13:34:48.104Z,99587.81
2022-08-11T13:36:55.798Z,99582.84
2022-08-11T13:38:58.885Z,99585.03
2022-08-11T13:41:01.526Z,99576.31
2022-08-11T13:43:03.654Z,99580.03
2022-08-11T13:45:07.577Z,99579.44
2022-08-11T13:47:13.260Z,99582.53
2022-08-11T13:49:17.535Z,99575.13
2022-08-11T13:51:36.300Z,99571.38
2022-08-11T13:53:39.121Z,99577.59
2022-08-11T13:55:52.119Z,99577.78
2022-08-11T13:58:08.650Z,99561.13
2022-08-11T14:00:25.043Z,99568.72
2022-08-11T14:02:31.748Z,99562.78
2022-08-11T14:04:42.758Z,99555.69
2022-08-11T14:06:53.546Z,99563.63
2022-08-11T14:08:56.240Z,99563.31
2022-08-11T14:12:23.071Z,99555.97
2022-08-11T14:13:48.478Z,99567.25
2022-08-11T14:15:52.908Z,99563.75
2022-08-11T14:18:11.720Z,99562.78
2022-08-11T14:20:38.273Z,99557.81
2022-08-11T14:22:42.644Z,99558.34
2022-08-11T14:24:49.825Z,99550.00
2022-08-11T14:26:52.976Z,99556.31
2022-08-11T14:28:55.280Z,99557.09
2022-08-11T14:31:01.218Z,99554.22
2022-08-11T14:33:16.520Z,99553.94
2022-08-11T14:35:20.115Z,99551.84
2022-08-11T14:37:25.494Z,99562.88
2022-08-11T14:39:37.754Z,99557.44
2022-08-11T14:42:11.287Z,99554.13
2022-08-11T14:44:34.630Z,99551.97
2022-08-11T14:46:55.580Z,99552.44
2022-08-11T14:48:58.187Z,99548.03
2022-08-11T14:51:00.427Z,99548.50
2022-08-11T14:53:07.182Z,99538.47
2022-08-11T14:55:27.911Z,99547.53
2022-08-11T14:57:55.288Z,99544.38
2022-08-11T14:59:57.825Z,99541.41
2022-08-11T15:02:21.207Z,99544.97
2022-08-11T15:04:35.827Z,99547.38
2022-08-11T15:06:39.033Z,99545.44
2022-08-11T15:08:56.707Z,99539.59
2022-08-11T15:10:58.741Z,99538.66
2022-08-11T15:13:02.253Z,99532.94
2022-08-11T15:15:25.416Z,99534.84
2022-08-11T15:17:33.700Z,99529.88
2022-08-11T15:20:04.989Z,99539.13
2022-08-11T15:22:28.064Z,99530.91
2022-08-11T15:24:31.251Z,99529.28
2022-08-11T15:27:01.355Z,99525.72
2022-08-11T15:29:23.623Z,99521.91
2022-08-11T15:31:49.511Z,99526.59
2022-08-11T15:34:12.645Z,99528.88
2022-08-11T15:36:38.282Z,99515.91
2022-08-11T15:38:47.365Z,99528.53
2022-08-11T15:41:09.663Z,99522.75
2022-08-11T15:43:39.426Z,99516.19
2022-08-11T15:45:49.210Z,99520.19
2022-08-11T15:48:05.979Z,99512.91
2022-08-11T15:50:13.985Z,99521.22
2022-08-11T15:52:23.440Z,99513.00
2022-08-11T15:54:28.962Z,99510.22
2022-08-11T15:56:33.006Z,99512.03
2022-08-11T15:59:10.817Z,99510.03
2022-08-11T16:01:43.820Z,99511.94
2022-08-11T16:04:13.180Z,99514.41
2022-08-11T16:06:16.414Z,99519.91
2022-08-11T16:08:32.696Z,99510.34
2022-08-11T16:10:36.643Z,99515.72
2022-08-11T16:13:05.976Z,99504.66
2022-08-11T16:15:29.596Z,99517.59
2022-08-11T16:17:34.818Z,99509.78
2022-08-11T16:19:40.052Z,99512.44
2022-08-11T16:21:44.848Z,99512.44
2022-08-11T16:23:48.746Z,99514.25
2022-08-11T16:27:05.522Z,99513.56
2022-08-11T16:28:15.304Z,99512.16
2022-08-11T16:30:17.976Z,99514.38
2022-08-11T16:32:23.775Z,99516.56
2022-08-11T16:34:44.702Z,99517.03
2022-08-11T16:37:05.151Z,99509.97
2022-08-11T16:39:08.398Z,99507.69
2022-08-11T16:41:13.998Z,99502.13
2022-08-11T16:43:37.337Z,99501.44
2022-08-11T16:45:59.659Z,99503.84
2022-08-11T16:48:35.006Z,99501.63
2022-08-11T16:50:25.207Z,99505.94
2022-08-11T16:52:27.126Z,99502.88
2022-08-11T16:54:29.539Z,99509.88
2022-08-11T16:56:51.221Z,99517.47
2022-08-11T16:59:17.335Z,99509.66
2022-08-11T17:01:23.074Z,99508.81
2022-08-11T17:03:44.658Z,99515.75
2022-08-11T17:06:11.238Z,99502.06
2022-08-11T17:08:54.252Z,99503.78
2022-08-11T17:11:21.514Z,99508.66
2022-08-11T17:13:47.653Z,99512.03
2022-08-11T17:16:07.112Z,99512.59
2022-08-11T17:18:34.612Z,99524.41
2022-08-11T17:20:43.661Z,99511.31
2022-08-11T17:23:04.793Z,99519.16
2022-08-11T17:25:09.648Z,99528.03
2022-08-11T17:27:19.033Z,99529.81
2022-08-11T17:29:24.936Z,99523.44
2022-08-11T17:32:02.763Z,99536.38
2022-08-11T17:34:26.388Z,99524.09
2022-08-11T17:36:28.321Z,99532.59
2022-08-11T17:38:34.162Z,99527.72
2022-08-11T17:40:38.977Z,99530.19
2022-08-11T17:43:02.284Z,99535.25
2022-08-11T17:45:24.415Z,99529.19
2022-08-11T17:47:46.563Z,99533.41
2022-08-11T17:49:49.108Z,99535.19
2022-08-11T17:52:11.867Z,99533.00
2022-08-11T17:54:47.146Z,99534.25
2022-08-11T17:57:21.381Z,99531.47
2022-08-11T17:59:43.799Z,99539.47
2022-08-11T18:01:53.934Z,99534.63
2022-08-11T18:03:59.266Z,99540.41
2022-08-11T18:06:03.530Z,99542.47
2022-08-11T18:08:27.869Z,99548.72
2022-08-11T18:10:50.188Z,99548.22
2022-08-11T18:13:15.256Z,99553.28
2022-08-11T18:15:35.691Z,99548.97
2022-08-11T18:17:56.748Z,99553.84
2022-08-11T18:20:17.162Z,99553.53
2022-08-11T18:22:43.133Z,99554.41
2022-08-11T18:25:12.258Z,99564.09
2022-08-11T18:27:36.623Z,99555.84
2022-08-11T18:29:59.951Z,99557.38
2022-08-11T18:32:27.121Z,99552.34
2022-08-11T18:35:00.444Z,99564.31
2022-08-11T18:37:29.562Z,99563.09
2022-08-11T18:39:56.304Z,99559.44
2022-08-11T18:42:29.719Z,99570.34
2022-08-11T18:44:53.360Z,99571.19
2022-08-11T18:47:16.371Z,99568.78
2022-08-11T18:50:03.566Z,99574.50
2022-08-11T18:52:25.508Z,99577.63
2022-08-11T18:54:50.009Z,99571.41
2022-08-11T18:57:16.414Z,99576.09
2022-08-11T18:59:38.880Z,99577.13
2022-08-11T19:01:59.730Z,99579.88
2022-08-11T19:04:23.332Z,99574.72
2022-08-11T19:06:52.393Z,99571.44
2022-08-11T19:09:17.571Z,99574.72
2022-08-11T19:11:42.808Z,99578.38
2022-08-11T19:14:05.553Z,99578.38
2022-08-11T19:16:27.019Z,99585.09
2022-08-11T19:18:49.933Z,99591.63
2022-08-11T19:21:12.800Z,99596.63
2022-08-11T19:23:37.615Z,99592.63
2022-08-11T19:25:59.180Z,99590.22
2022-08-11T19:28:23.022Z,99596.25
2022-08-11T19:30:44.923Z,99597.09
2022-08-11T19:33:05.612Z,99597.94
2022-08-11T19:35:27.071Z,99609.69
2022-08-11T19:37:48.926Z,99598.13
2022-08-11T19:40:12.397Z,99603.63
2022-08-11T19:42:34.554Z,99608.78
2022-08-11T19:44:55.236Z,99605.66
2022-08-11T19:47:17.569Z,99597.22
2022-08-11T19:49:39.041Z,99603.97
2022-08-11T19:52:01.122Z,99600.84
2022-08-11T19:54:22.779Z,99589.50
2022-08-11T19:56:43.873Z,99600.19
2022-08-11T19:59:05.057Z,99591.91
2022-08-11T20:01:25.329Z,99596.53
2022-08-11T20:03:46.202Z,99595.16
2022-08-11T20:06:07.348Z,99591.00
2022-08-11T20:08:28.131Z,99597.22
2022-08-11T20:10:50.950Z,99601.19
2022-08-11T20:13:13.908Z,99597.88
2022-08-11T20:15:44.503Z,99597.97
2022-08-11T20:18:06.177Z,99594.13
2022-08-11T20:20:28.808Z,99587.88
2022-08-11T20:22:49.820Z,99593.78
2022-08-11T20:25:11.854Z,99594.97
2022-08-11T20:27:34.171Z,99603.75
2022-08-11T20:29:54.858Z,99597.38
2022-08-11T20:32:15.459Z,99602.34
2022-08-11T20:34:36.167Z,99595.59
2022-08-11T20:36:56.925Z,99598.72
2022-08-11T20:39:18.518Z,99596.19
2022-08-11T20:41:58.566Z,99605.03
2022-08-11T20:44:21.194Z,99601.94
2022-08-11T20:46:44.338Z,99598.16
2022-08-11T20:49:08.988Z,99602.81
2022-08-11T20:51:34.007Z,99605.72
2022-08-11T20:54:05.513Z,99610.72
2022-08-11T20:56:28.510Z,99620.47
2022-08-11T21:01:38.323Z,99629.25
2022-08-11T21:04:00.673Z,99626.78
2022-08-11T21:06:31.644Z,99623.03
2022-08-11T21:08:56.366Z,99626.59
2022-08-11T21:11:27.893Z,99634.47
2022-08-11T21:13:52.687Z,99632.34
2022-08-11T21:16:26.037Z,99639.00
2022-08-11T21:18:49.758Z,99636.56
2022-08-11T21:21:16.424Z,99638.47
2022-08-11T21:23:37.647Z,99640.66
2022-08-11T21:26:11.954Z,99645.94
2022-08-11T21:28:35.892Z,99642.16
2022-08-11T21:30:58.419Z,99644.53
2022-08-11T21:33:20.556Z,99642.41
2022-08-11T21:35:45.205Z,99647.50
2022-08-11T21:38:08.981Z,99644.34
2022-08-11T21:40:30.348Z,99650.78
2022-08-11T21:42:55.601Z,99647.31
2022-08-11T21:45:17.574Z,99644.75
2022-08-11T21:47:42.989Z,99645.75
2022-08-11T21:50:05.001Z,99643.63
2022-08-11T21:52:25.747Z,99646.16
2022-08-11T21:54:46.219Z,99641.13
2022-08-11T21:57:07.082Z,99648.53
2022-08-11T21:59:29.765Z,99646.38
2022-08-11T22:01:51.614Z,99648.00
2022-08-11T22:04:13.542Z,99643.53
2022-08-11T22:06:35.782Z,99644.72
2022-08-11T22:08:56.705Z,99642.81
2022-08-11T22:11:32.048Z,99647.78
2022-08-11T22:14:00.723Z,99651.00
2022-08-11T22:16:27.083Z,99647.47
2022-08-11T22:18:49.188Z,99641.97
2022-08-11T22:21:11.730Z,99639.28
2022-08-11T22:23:39.928Z,99641.78
2022-08-11T22:26:07.410Z,99635.78
2022-08-11T22:28:32.687Z,99642.03
2022-08-11T22:30:53.462Z,99644.31
2022-08-11T22:33:16.009Z,99636.81
2022-08-11T22:35:36.967Z,99646.81
2022-08-11T22:37:58.297Z,99637.84
2022-08-11T22:40:19.428Z,99637.00
2022-08-11T22:42:39.859Z,99635.97
2022-08-11T22:45:00.377Z,99638.47
2022-08-11T22:47:22.403Z,99638.75
2022-08-11T22:49:58.104Z,99639.63
2022-08-11T22:52:20.016Z,99627.34
2022-08-11T22:54:40.707Z,99632.84
2022-08-11T22:57:01.797Z,99626.78
2022-08-11T22:59:24.372Z,99637.91
2022-08-11T23:01:54.690Z,99636.50
2022-08-11T23:04:19.956Z,99635.88
2022-08-11T23:06:41.037Z,99627.81
2022-08-11T23:09:02.764Z,99625.69
2022-08-11T23:11:24.247Z,99629.75
2022-08-11T23:13:45.923Z,99630.66
2022-08-11T23:16:06.717Z,99623.56
2022-08-11T23:18:27.771Z,99620.97
2022-08-11T23:20:50.431Z,99629.22
2022-08-11T23:23:16.225Z,99623.47
2022-08-11T23:25:37.356Z,99627.06
2022-08-11T23:28:00.164Z,99622.00
2022-08-11T23:30:20.669Z,99626.63
2022-08-11T23:32:45.655Z,99625.19
2022-08-11T23:35:38.374Z,99623.72
2022-08-11T23:37:51.632Z,99624.19
2022-08-11T23:40:12.191Z,99628.34
2022-08-11T23:42:32.783Z,99621.69
2022-08-11T23:44:56.714Z,99617.09
2022-08-11T23:47:19.648Z,99625.44
2022-08-11T23:49:41.472Z,99624.16
2022-08-11T23:52:03.221Z,99633.66
2022-08-11T23:54:24.391Z,99631.66
2022-08-11T23:56:46.239Z,99631.66
2022-08-11T23:59:09.502Z,99632.69
